createdAt,value
2017-10-02T00:02:05.679Z,96222
2017-10-02T00:04:34.366Z,96214
2017-10-02T00:07:09.290Z,96215
2017-10-02T00:09:38.768Z,96230
2017-10-02T00:12:07.454Z,96221
2017-10-02T00:14:36.142Z,96218
2017-10-02T00:17:04.867Z,96219
2017-10-02T00:19:34.323Z,96222
2017-10-02T00:22:04.667Z,96212
2017-10-02T00:24:34.229Z,96216
2017-10-02T00:27:03.905Z,96219
2017-10-02T00:29:33.375Z,96219
2017-10-02T00:32:02.064Z,96214
2017-10-02T00:34:30.759Z,96210
2017-10-02T00:36:59.463Z,96213
2017-10-02T00:39:34.399Z,96211
2017-10-02T00:42:03.855Z,96220
2017-10-02T00:44:32.555Z,96210
2017-10-02T00:47:01.251Z,96209
2017-10-02T00:49:29.966Z,96215
2017-10-02T00:51:59.445Z,96218
2017-10-02T00:54:34.312Z,96221
2017-10-02T00:57:03.870Z,96221
2017-10-02T00:59:38.883Z,96209
2017-10-02T01:02:08.046Z,96218
2017-10-02T01:04:36.715Z,96214
2017-10-02T01:07:06.183Z,96213
2017-10-02T01:09:34.883Z,96210
2017-10-02T01:12:05.224Z,96206
2017-10-02T01:14:33.919Z,96204
2017-10-02T01:17:03.382Z,96209
2017-10-02T01:19:32.084Z,96207
2017-10-02T01:22:01.563Z,96210
2017-10-02T01:24:36.523Z,96207
2017-10-02T01:27:05.214Z,96209
2017-10-02T01:29:40.865Z,96204
2017-10-02T01:32:09.563Z,96198
2017-10-02T01:34:39.027Z,96192
2017-10-02T01:37:07.744Z,96195
2017-10-02T01:39:36.453Z,96188
2017-10-02T01:42:05.168Z,96179
2017-10-02T01:44:33.871Z,96179
2017-10-02T01:47:02.599Z,96172
2017-10-02T01:49:32.063Z,96164
2017-10-02T01:52:00.752Z,96175
2017-10-02T01:54:29.467Z,96156
2017-10-02T01:56:58.159Z,96167
2017-10-02T01:59:26.860Z,96199
2017-10-02T02:01:55.552Z,96145
2017-10-02T02:04:24.259Z,96147
2017-10-02T02:06:52.947Z,96143
2017-10-02T02:09:21.706Z,96145
2017-10-02T02:11:51.155Z,96143
2017-10-02T02:14:26.118Z,96148
2017-10-02T02:16:54.893Z,96143
2017-10-02T02:19:23.559Z,96147
2017-10-02T02:21:52.282Z,96142
2017-10-02T02:24:21.753Z,96139
2017-10-02T02:26:50.439Z,96138
2017-10-02T02:29:19.947Z,96145
2017-10-02T02:31:48.642Z,96136
2017-10-02T02:34:17.340Z,96142
2017-10-02T02:36:49.044Z,96124
2017-10-02T02:39:17.757Z,96123
2017-10-02T02:41:46.442Z,96122
2017-10-02T02:44:15.144Z,96126
2017-10-02T02:46:43.848Z,96127
2017-10-02T02:49:18.618Z,96122
2017-10-02T02:51:47.307Z,96135
2017-10-02T02:54:23.218Z,96137
2017-10-02T02:56:51.899Z,96135
2017-10-02T02:59:26.879Z,96147
2017-10-02T03:01:55.563Z,96144
2017-10-02T03:04:25.911Z,96138
2017-10-02T03:06:54.604Z,96137
2017-10-02T03:09:23.296Z,96133
2017-10-02T03:11:51.993Z,96132
2017-10-02T03:14:26.914Z,96138
2017-10-02T03:16:55.630Z,96133
2017-10-02T03:19:30.608Z,96137
2017-10-02T03:21:59.344Z,96137
2017-10-02T03:24:28.063Z,96133
2017-10-02T03:26:56.784Z,96132
2017-10-02T03:29:25.488Z,96143
2017-10-02T03:32:00.333Z,96131
2017-10-02T03:34:29.798Z,96133
2017-10-02T03:36:58.507Z,96133
2017-10-02T03:39:27.186Z,96139
2017-10-02T03:41:55.887Z,96129
2017-10-02T03:44:25.344Z,96119
2017-10-02T03:46:54.049Z,96117
2017-10-02T03:49:22.739Z,96128
2017-10-02T03:51:51.450Z,96119
2017-10-02T03:54:26.437Z,96119
2017-10-02T03:56:55.219Z,96120
2017-10-02T03:59:30.156Z,96114
2017-10-02T04:01:58.870Z,96117
2017-10-02T04:04:27.556Z,96117
2017-10-02T04:06:56.239Z,96117
2017-10-02T04:09:25.840Z,96105
2017-10-02T04:12:00.750Z,96109
2017-10-02T04:14:29.481Z,96111
2017-10-02T04:17:29.396Z,96117
2017-10-02T04:19:58.104Z,96114
2017-10-02T04:22:27.538Z,96113
2017-10-02T04:24:56.237Z,96103
2017-10-02T04:27:24.927Z,96114
2017-10-02T04:29:58.423Z,96114
2017-10-02T04:32:27.122Z,96112
2017-10-02T04:34:56.361Z,96113
2017-10-02T04:37:25.809Z,96119
2017-10-02T04:39:54.499Z,96118
2017-10-02T04:42:23.214Z,96125
2017-10-02T04:44:51.923Z,96121
2017-10-02T04:47:21.467Z,96119
2017-10-02T04:49:50.191Z,96121
2017-10-02T04:52:18.901Z,96119
2017-10-02T04:54:53.823Z,96110
2017-10-02T04:57:22.503Z,96121
2017-10-02T04:59:51.206Z,96121
2017-10-02T05:02:19.900Z,96133
2017-10-02T05:04:54.898Z,96133
2017-10-02T05:07:23.591Z,96127
2017-10-02T05:09:52.284Z,96131
2017-10-02T05:12:21.004Z,96135
2017-10-02T05:14:49.707Z,96131
2017-10-02T05:17:18.396Z,96134
2017-10-02T05:19:47.859Z,96138
2017-10-02T05:22:16.554Z,96141
2017-10-02T05:24:45.280Z,96135
2017-10-02T05:27:14.767Z,96140
2017-10-02T05:29:43.472Z,96142
2017-10-02T05:32:12.159Z,96139
2017-10-02T05:34:40.864Z,96123
2017-10-02T05:37:09.572Z,96134
2017-10-02T05:39:39.032Z,96133
2017-10-02T05:42:12.545Z,96130
2017-10-02T05:44:41.235Z,96127
2017-10-02T05:47:09.959Z,96131
2017-10-02T05:49:39.419Z,96135
2017-10-02T05:52:08.125Z,96122
2017-10-02T05:54:36.814Z,96129
2017-10-02T05:57:05.500Z,96125
2017-10-02T05:59:34.251Z,96126
2017-10-02T06:02:02.995Z,96117
2017-10-02T06:04:32.588Z,96120
2017-10-02T06:07:01.501Z,96116
2017-10-02T06:09:30.194Z,96110
2017-10-02T06:11:59.054Z,96111
2017-10-02T06:14:30.489Z,96110
2017-10-02T06:16:59.182Z,96101
2017-10-02T06:19:29.658Z,96107
2017-10-02T06:21:59.273Z,96105
2017-10-02T06:24:27.958Z,96101
2017-10-02T06:26:58.317Z,96098
2017-10-02T06:29:33.243Z,96103
2017-10-02T06:32:08.247Z,96096
2017-10-02T06:34:36.944Z,96100
2017-10-02T06:37:05.649Z,96083
2017-10-02T06:39:34.343Z,96090
2017-10-02T06:42:09.176Z,96087
2017-10-02T06:44:38.784Z,96090
2017-10-02T06:47:07.516Z,96095
2017-10-02T06:49:36.652Z,96088
2017-10-02T06:52:05.583Z,96093
2017-10-02T06:54:35.373Z,96082
2017-10-02T06:57:11.105Z,96090
2017-10-02T06:59:49.246Z,96098
2017-10-02T07:02:17.973Z,96086
2017-10-02T07:04:52.928Z,96088
2017-10-02T07:07:22.436Z,96104
2017-10-02T07:09:51.920Z,96095
2017-10-02T07:12:20.654Z,96092
2017-10-02T07:14:49.384Z,96094
2017-10-02T07:17:24.174Z,96100
2017-10-02T07:19:52.863Z,96098
2017-10-02T07:22:21.574Z,96101
2017-10-02T07:24:50.309Z,96103
2017-10-02T07:27:29.355Z,96024
2017-10-02T07:30:04.443Z,96099
2017-10-02T07:32:33.135Z,96098
2017-10-02T07:35:01.840Z,96094
2017-10-02T07:37:36.832Z,96104
2017-10-02T07:40:11.729Z,96101
2017-10-02T07:42:40.423Z,96102
2017-10-02T07:45:09.264Z,96099
2017-10-02T07:47:37.966Z,96099
2017-10-02T07:50:07.466Z,96085
2017-10-02T07:52:36.928Z,96084
2017-10-02T07:55:12.759Z,96086
2017-10-02T07:57:41.591Z,96077
2017-10-02T08:00:10.920Z,96075
2017-10-02T08:02:41.320Z,96064
2017-10-02T08:05:10.019Z,96068
2017-10-02T08:07:44.969Z,96072
2017-10-02T08:10:14.424Z,96069
2017-10-02T08:12:43.111Z,96067
2017-10-02T08:15:13.954Z,96066
2017-10-02T08:17:48.747Z,96070
2017-10-02T08:20:17.453Z,96070
2017-10-02T08:22:46.150Z,96068
2017-10-02T08:25:14.843Z,96070
2017-10-02T08:27:43.548Z,96070
2017-10-02T08:30:13.015Z,96073
2017-10-02T08:32:41.712Z,96070
2017-10-02T08:35:10.404Z,96094
2017-10-02T08:37:39.116Z,96080
2017-10-02T08:40:08.562Z,96075
2017-10-02T08:42:37.314Z,96075
2017-10-02T08:45:13.273Z,96073
2017-10-02T08:47:42.753Z,96072
2017-10-02T08:50:11.444Z,96069
2017-10-02T08:52:40.139Z,96062
2017-10-02T08:55:08.923Z,96090
2017-10-02T08:57:37.615Z,96058
2017-10-02T09:00:10.407Z,96060
2017-10-02T09:02:39.116Z,96065
2017-10-02T09:05:08.659Z,96067
2017-10-02T09:07:38.212Z,96066
2017-10-02T09:10:07.807Z,96054
2017-10-02T09:12:36.499Z,96059
2017-10-02T09:15:11.517Z,96042
2017-10-02T09:17:40.231Z,96045
2017-10-02T09:20:15.119Z,96052
2017-10-02T09:22:43.903Z,96050
2017-10-02T09:25:18.828Z,96042
2017-10-02T09:27:47.535Z,96041
2017-10-02T09:30:23.120Z,96040
2017-10-02T09:32:53.844Z,96043
2017-10-02T09:35:22.534Z,96044
2017-10-02T09:37:51.218Z,96048
2017-10-02T09:40:19.922Z,96047
2017-10-02T09:42:48.615Z,96049
2017-10-02T09:45:19.331Z,96041
2017-10-02T09:47:48.034Z,96033
2017-10-02T09:50:17.587Z,96037
2017-10-02T09:52:48.172Z,96037
2017-10-02T09:55:16.871Z,96036
2017-10-02T09:57:45.568Z,96036
2017-10-02T10:00:14.259Z,96044
2017-10-02T10:02:42.956Z,96041
2017-10-02T10:05:11.639Z,96033
2017-10-02T10:07:40.360Z,96076
2017-10-02T10:10:09.059Z,96023
2017-10-02T10:12:37.747Z,96028
2017-10-02T10:15:06.447Z,96028
2017-10-02T10:17:35.132Z,96026
2017-10-02T10:20:03.819Z,96024
2017-10-02T10:22:39.010Z,96026
2017-10-02T10:25:08.483Z,96013
2017-10-02T10:27:37.938Z,96019
2017-10-02T10:30:06.654Z,96012
2017-10-02T10:32:41.563Z,96001
2017-10-02T10:35:10.243Z,95999
2017-10-02T10:37:38.932Z,96006
2017-10-02T10:40:07.620Z,95998
2017-10-02T10:42:36.336Z,95996
2017-10-02T10:45:05.028Z,95991
2017-10-02T10:47:35.486Z,95989
2017-10-02T10:50:05.815Z,95992
2017-10-02T10:52:34.495Z,95981
2017-10-02T10:55:03.173Z,95981
2017-10-02T10:57:39.659Z,95986
2017-10-02T11:00:14.500Z,95987
2017-10-02T11:02:51.707Z,95989
2017-10-02T11:05:26.908Z,95983
2017-10-02T11:07:56.906Z,95983
2017-10-02T11:10:25.611Z,95967
2017-10-02T11:12:55.179Z,95977
2017-10-02T11:15:23.858Z,95972
2017-10-02T11:17:52.558Z,95978
2017-10-02T11:20:21.247Z,95973
2017-10-02T11:22:49.984Z,95967
2017-10-02T11:25:24.964Z,95958
2017-10-02T11:27:53.696Z,95956
2017-10-02T11:30:22.393Z,95955
2017-10-02T11:32:57.198Z,95958
2017-10-02T11:35:26.675Z,95951
2017-10-02T11:37:56.115Z,95951
2017-10-02T11:40:31.703Z,95952
2017-10-02T11:43:06.674Z,95945
2017-10-02T11:45:36.143Z,95940
2017-10-02T11:48:04.819Z,95974
2017-10-02T11:50:33.521Z,95925
2017-10-02T11:53:02.192Z,95921
2017-10-02T11:55:30.879Z,95963
2017-10-02T11:57:59.592Z,95917
2017-10-02T12:00:29.080Z,95916
2017-10-02T12:02:57.764Z,95921
2017-10-02T12:05:32.602Z,95926
2017-10-02T12:08:01.291Z,95917
2017-10-02T12:10:29.999Z,95916
2017-10-02T12:12:59.447Z,95915
2017-10-02T12:15:29.765Z,95911
2017-10-02T12:18:04.612Z,95904
2017-10-02T12:20:34.282Z,95907
2017-10-02T12:23:03.063Z,95903
2017-10-02T12:25:32.635Z,95900
2017-10-02T12:28:07.537Z,95907
2017-10-02T12:30:36.308Z,95900
2017-10-02T12:33:05.105Z,95896
2017-10-02T12:35:40.023Z,95910
2017-10-02T12:38:08.747Z,95904
2017-10-02T12:40:44.279Z,95908
2017-10-02T12:43:13.057Z,95907
2017-10-02T12:45:42.752Z,95903
2017-10-02T12:48:12.400Z,95903
2017-10-02T12:50:41.113Z,95904
2017-10-02T12:53:09.787Z,95903
2017-10-02T12:55:44.633Z,95903
2017-10-02T12:58:14.068Z,95906
2017-10-02T13:00:49.014Z,95899
2017-10-02T13:03:17.690Z,95899
2017-10-02T13:05:52.672Z,95891
2017-10-02T13:08:26.427Z,95891
2017-10-02T13:10:55.959Z,95885
2017-10-02T13:13:24.644Z,95908
2017-10-02T13:15:53.322Z,95881
2017-10-02T13:18:22.012Z,95886
2017-10-02T13:20:50.690Z,95881
2017-10-02T13:23:19.379Z,95881
2017-10-02T13:25:48.872Z,95877
2017-10-02T13:28:17.585Z,95873
2017-10-02T13:30:46.310Z,95866
2017-10-02T13:33:21.210Z,95864
2017-10-02T13:35:50.016Z,95855
2017-10-02T13:38:25.007Z,95858
2017-10-02T13:40:53.750Z,95859
2017-10-02T13:43:22.428Z,95853
2017-10-02T13:45:51.123Z,95848
2017-10-02T13:48:20.568Z,95846
2017-10-02T13:50:49.434Z,95847
2017-10-02T13:53:18.216Z,95849
2017-10-02T13:55:53.071Z,95836
2017-10-02T13:58:22.523Z,95840
2017-10-02T14:00:57.418Z,95840
2017-10-02T14:03:32.417Z,95834
2017-10-02T14:06:01.127Z,95824
2017-10-02T14:08:29.816Z,95822
2017-10-02T14:10:58.572Z,95821
2017-10-02T14:13:27.353Z,95818
2017-10-02T14:16:01.384Z,95815
2017-10-02T14:18:30.247Z,95811
2017-10-02T14:21:05.376Z,95810
2017-10-02T14:23:40.400Z,95806
2017-10-02T14:26:10.933Z,95807
2017-10-02T14:28:45.756Z,95810
2017-10-02T14:31:15.204Z,95814
2017-10-02T14:33:44.747Z,95815
2017-10-02T14:36:13.427Z,95821
2017-10-02T14:38:42.110Z,95823
2017-10-02T14:41:11.695Z,95819
2017-10-02T14:43:42.115Z,95822
2017-10-02T14:46:11.701Z,95826
2017-10-02T14:48:40.408Z,95830
2017-10-02T14:51:10.982Z,95825
2017-10-02T14:53:46.596Z,95832
2017-10-02T14:56:15.313Z,95839
2017-10-02T14:58:50.432Z,95831
2017-10-02T15:01:20.007Z,95828
2017-10-02T15:03:48.688Z,95823
2017-10-02T15:06:18.305Z,95829
2017-10-02T15:08:46.985Z,95827
2017-10-02T15:11:22.708Z,95831
2017-10-02T15:13:52.415Z,95831
2017-10-02T15:16:21.113Z,95834
2017-10-02T15:18:49.828Z,95839
2017-10-02T15:21:18.521Z,95834
2017-10-02T15:23:54.240Z,95834
2017-10-02T15:26:22.926Z,95843
2017-10-02T15:28:57.895Z,95856
2017-10-02T15:31:27.462Z,95853
2017-10-02T15:34:02.411Z,95852
2017-10-02T15:36:31.165Z,95857
2017-10-02T15:39:06.111Z,95855
2017-10-02T15:41:34.791Z,95858
2017-10-02T15:44:03.561Z,95859
2017-10-02T15:46:32.248Z,95859
2017-10-02T15:49:01.700Z,95850
2017-10-02T15:51:32.029Z,95858
2017-10-02T15:54:00.712Z,95856
2017-10-02T15:56:35.678Z,95842
2017-10-02T15:59:04.363Z,95845
2017-10-02T16:01:33.047Z,95838
2017-10-02T16:04:01.748Z,95840
2017-10-02T16:06:31.208Z,95830
2017-10-02T16:08:59.896Z,95823
2017-10-02T16:11:28.568Z,95831
2017-10-02T16:13:57.279Z,95831
2017-10-02T16:16:32.100Z,95831
2017-10-02T16:19:00.829Z,95836
2017-10-02T16:21:29.508Z,95834
2017-10-02T16:24:05.254Z,95834
2017-10-02T16:26:36.947Z,95825
2017-10-02T16:29:05.650Z,95823
2017-10-02T16:31:34.332Z,95818
2017-10-02T16:34:03.136Z,95812
2017-10-02T16:36:31.831Z,95817
2017-10-02T16:39:00.518Z,95820
2017-10-02T16:41:29.231Z,95811
2017-10-02T16:44:04.125Z,95821
2017-10-02T16:46:32.811Z,95817
2017-10-02T16:49:01.497Z,95822
2017-10-02T16:51:30.200Z,95824
2017-10-02T16:53:58.888Z,95828
2017-10-02T16:56:27.574Z,95832
2017-10-02T16:59:02.547Z,95839
2017-10-02T17:01:31.242Z,95837
2017-10-02T17:04:06.873Z,95829
2017-10-02T17:06:41.768Z,95833
2017-10-02T17:09:10.460Z,95838
2017-10-02T17:11:45.456Z,95837
2017-10-02T17:14:14.964Z,95842
2017-10-02T17:16:44.443Z,95837
2017-10-02T17:19:13.135Z,95837
2017-10-02T17:21:48.000Z,95837
2017-10-02T17:24:22.896Z,95828
2017-10-02T17:26:51.583Z,95830
2017-10-02T17:29:28.235Z,95838
2017-10-02T17:31:56.961Z,95838
2017-10-02T17:34:33.365Z,95844
2017-10-02T17:37:08.967Z,95841
2017-10-02T17:39:38.431Z,95848
2017-10-02T17:42:08.770Z,95849
2017-10-02T17:44:43.594Z,95851
2017-10-02T17:47:12.299Z,95850
2017-10-02T17:49:49.168Z,95854
2017-10-02T17:52:17.881Z,95854
2017-10-02T17:54:47.476Z,95849
2017-10-02T17:57:16.972Z,95854
2017-10-02T17:59:51.978Z,95851
2017-10-02T18:02:20.655Z,95844
2017-10-02T18:04:55.179Z,95851
2017-10-02T18:07:23.863Z,95854
2017-10-02T18:09:52.555Z,95847
2017-10-02T18:12:21.227Z,95841
2017-10-02T18:14:56.196Z,95841
2017-10-02T18:17:31.180Z,95843
2017-10-02T18:20:00.850Z,95843
2017-10-02T18:22:35.772Z,95838
2017-10-02T18:25:04.568Z,95831
2017-10-02T18:27:33.272Z,95835
2017-10-02T18:30:06.623Z,95837
2017-10-02T18:32:41.980Z,95833
2017-10-02T18:35:17.822Z,95835
2017-10-02T18:37:46.603Z,95837
2017-10-02T18:40:15.269Z,95831
2017-10-02T18:42:53.605Z,95823
2017-10-02T18:45:26.596Z,95828
2017-10-02T18:48:07.917Z,95857
2017-10-02T18:50:43.713Z,95844
2017-10-02T18:53:13.247Z,95834
2017-10-02T18:55:47.437Z,95835
2017-10-02T18:58:17.137Z,95834
2017-10-02T19:00:47.480Z,95831
2017-10-02T19:03:22.449Z,95824
2017-10-02T19:05:51.148Z,95824
2017-10-02T19:08:26.131Z,95820
2017-10-02T19:10:55.717Z,95813
2017-10-02T19:13:24.411Z,95810
2017-10-02T19:15:59.600Z,95807
2017-10-02T19:18:29.135Z,95810
2017-10-02T19:21:05.217Z,95814
2017-10-02T19:23:34.179Z,95811
2017-10-02T19:26:03.171Z,95817
2017-10-02T19:28:32.021Z,95815
2017-10-02T19:31:07.057Z,95809
2017-10-02T19:33:35.812Z,95808
2017-10-02T19:36:10.873Z,95817
2017-10-02T19:38:39.623Z,95815
2017-10-02T19:41:09.602Z,95821
2017-10-02T19:43:38.798Z,95813
2017-10-02T19:46:07.544Z,95823
2017-10-02T19:48:50.803Z,95813
2017-10-02T19:51:19.918Z,95811
2017-10-02T19:53:54.865Z,95812
2017-10-02T19:56:30.571Z,95810
2017-10-02T19:59:05.611Z,95812
2017-10-02T20:01:35.215Z,95806
2017-10-02T20:04:04.921Z,95808
2017-10-02T20:06:35.115Z,95811
2017-10-02T20:09:10.120Z,95811
2017-10-02T20:11:40.656Z,95799
2017-10-02T20:14:15.780Z,95794
2017-10-02T20:16:45.162Z,95804
2017-10-02T20:19:14.760Z,95798
2017-10-02T20:21:43.863Z,95796
2017-10-02T20:24:19.983Z,95797
2017-10-02T20:26:48.764Z,95796
2017-10-02T20:29:23.727Z,95789
2017-10-02T20:31:54.639Z,95786
2017-10-02T20:34:23.651Z,95796
2017-10-02T20:36:53.774Z,95792
2017-10-02T20:39:22.619Z,95795
2017-10-02T20:41:51.472Z,95783
2017-10-02T20:44:20.175Z,95810
2017-10-02T20:46:49.247Z,95785
2017-10-02T20:49:18.331Z,95782
2017-10-02T20:51:47.500Z,95782
2017-10-02T20:54:18.259Z,95780
2017-10-02T20:56:48.251Z,95774
2017-10-02T20:59:17.937Z,95767
2017-10-02T21:01:52.860Z,95764
2017-10-02T21:04:22.314Z,95770
2017-10-02T21:06:50.996Z,95757
2017-10-02T21:09:26.801Z,95770
2017-10-02T21:11:55.567Z,95759
2017-10-02T21:14:25.118Z,95760
2017-10-02T21:17:00.119Z,95762
2017-10-02T21:19:30.051Z,95759
2017-10-02T21:21:58.920Z,95761
2017-10-02T21:24:28.091Z,95753
2017-10-02T21:26:57.069Z,95754
2017-10-02T21:29:25.793Z,95756
2017-10-02T21:31:54.622Z,95749
2017-10-02T21:34:23.719Z,95750
2017-10-02T21:36:53.725Z,95747
2017-10-02T21:39:23.678Z,95743
2017-10-02T21:41:52.756Z,95745
2017-10-02T21:44:22.204Z,95736
2017-10-02T21:46:55.785Z,95733
2017-10-02T21:49:28.213Z,95736
2017-10-02T21:51:57.324Z,95728
2017-10-02T21:54:27.488Z,95730
2017-10-02T21:56:56.394Z,95733
2017-10-02T21:59:25.817Z,95736
2017-10-02T22:01:56.708Z,95737
2017-10-02T22:04:25.999Z,95749
2017-10-02T22:06:55.438Z,95748
2017-10-02T22:09:24.378Z,95759
2017-10-02T22:11:53.434Z,95755
2017-10-02T22:14:27.616Z,95754
2017-10-02T22:17:02.983Z,95408
2017-10-02T22:19:33.947Z,95764
2017-10-02T22:22:05.880Z,95756
2017-10-02T22:24:44.140Z,95762
2017-10-02T22:27:19.931Z,95761
2017-10-02T22:29:55.786Z,95757
2017-10-02T22:32:25.855Z,95749
2017-10-02T22:34:55.134Z,95747
2017-10-02T22:37:23.916Z,95739
2017-10-02T22:39:58.996Z,95740
2017-10-02T22:42:28.092Z,95766
2017-10-02T22:45:03.548Z,95741
2017-10-02T22:47:32.311Z,95742
2017-10-02T22:50:01.504Z,95753
2017-10-02T22:52:30.389Z,95760
2017-10-02T22:54:59.857Z,95753
2017-10-02T22:57:35.254Z,95751
2017-10-02T23:00:04.505Z,95764
2017-10-02T23:02:35.279Z,95751
2017-10-02T23:05:03.980Z,95749
2017-10-02T23:07:38.899Z,95760
2017-10-02T23:10:09.329Z,95753
2017-10-02T23:12:38.002Z,95744
2017-10-02T23:15:06.749Z,95746
2017-10-02T23:17:35.970Z,95739
2017-10-02T23:20:08.684Z,95742
2017-10-02T23:22:41.445Z,95740
2017-10-02T23:25:10.382Z,95730
2017-10-02T23:27:40.020Z,95735
2017-10-02T23:30:14.985Z,95728
2017-10-02T23:32:53.302Z,95720
2017-10-02T23:35:21.977Z,95721
2017-10-02T23:37:50.678Z,95725
2017-10-02T23:40:21.352Z,95723
2017-10-02T23:42:50.044Z,95646
2017-10-02T23:45:18.730Z,95728
2017-10-02T23:47:47.569Z,95730
2017-10-02T23:50:17.276Z,95726
2017-10-02T23:52:46.928Z,95727
2017-10-02T23:55:16.702Z,95729
2017-10-02T23:57:46.343Z,95730
